Time;durP1;ratioP1;P1;durP2;ratioP2;P2;SDS_P1;SDS_P2;PMS_P1;PMS_P2;Temp;Humidity;BMP_temperature;BMP_pressure;BME280_temperature;BME280_humidity;BME280_pressure;Samples;Min_cycle;Max_cycle;Signal;HPM_P1;HPM_P2
2022/11/17 00:00:19;;;;;;;8.35;5.33;;;;;;;2.47;69.85;101066.36;1703026;82;21078;-88
2022/11/17 00:02:48;;;;;;;5.03;3.90;;;;;;;2.47;69.83;101070.67;1721913;81;21118;-88
2022/11/17 00:05:14;;;;;;;6.55;4.37;;;;;;;2.47;69.67;101061.58;1727408;81;21954;-88
2022/11/17 00:07:42;;;;;;;6.90;4.80;;;;;;;2.44;69.68;101057.10;1725743;81;22208;-88
2022/11/17 00:10:08;;;;;;;8.35;6.45;;;;;;;2.44;69.75;101056.17;1714773;81;22030;-88
2022/11/17 00:15:21;;;;;;;5.67;5.08;;;;;;;2.45;69.56;101055.39;1689855;81;39141;-88
2022/11/17 00:17:48;;;;;;;5.42;4.85;;;;;;;2.43;69.62;101044.02;1740288;80;21042;-89
2022/11/17 00:22:59;;;;;;;3.92;3.42;;;;;;;2.45;69.51;101037.20;1769357;79;21054;-89
2022/11/17 00:25:26;;;;;;;3.95;3.15;;;;;;;2.43;69.50;101034.50;1764991;80;21064;-89
2022/11/17 00:27:53;;;;;;;3.85;3.45;;;;;;;2.43;69.50;101042.30;1768376;80;21115;-89
2022/11/17 00:35:51;;;;;;;3.45;2.75;;;;;;;2.34;69.57;101040.02;1762659;80;21073;-88
2022/11/17 00:38:18;;;;;;;3.80;3.40;;;;;;;2.35;69.49;101050.03;1763940;79;21067;-88
2022/11/17 00:40:44;;;;;;;4.08;3.02;;;;;;;2.31;69.46;101041.55;1764480;79;21078;-88
2022/11/17 00:43:11;;;;;;;3.58;3.02;;;;;;;2.29;69.52;101037.93;1761315;80;21091;-87
2022/11/17 00:45:38;;;;;;;4.25;3.37;;;;;;;2.29;69.56;101043.13;1761887;80;23215;-87
2022/11/17 00:48:05;;;;;;;3.77;3.37;;;;;;;2.31;69.53;101045.45;1765808;80;21038;-89
2022/11/17 00:50:32;;;;;;;4.65;3.65;;;;;;;2.32;69.59;101047.23;1764835;80;21094;-89
2022/11/17 00:52:59;;;;;;;6.45;4.08;;;;;;;2.38;69.68;101049.31;1766443;80;21030;-89
2022/11/17 00:55:25;;;;;;;3.80;3.40;;;;;;;2.44;69.64;101053.20;1764343;80;21070;-89
2022/11/17 00:57:52;;;;;;;3.25;2.95;;;;;;;2.47;69.41;101056.38;1763656;79;21742;-90
2022/11/17 01:00:20;;;;;;;4.58;3.60;;;;;;;2.45;69.38;101056.28;1763226;80;21050;-90
2022/11/17 01:02:46;;;;;;;3.98;3.30;;;;;;;2.43;69.43;101051.80;1767502;80;21054;-90
2022/11/17 01:05:13;;;;;;;3.83;3.05;;;;;;;2.48;69.50;101053.89;1760414;79;21054;-90
2022/11/17 01:07:39;;;;;;;3.27;2.95;;;;;;;2.51;69.41;101051.87;1766092;80;21506;-90
2022/11/17 01:10:07;;;;;;;3.83;3.35;;;;;;;2.50;69.32;101041.89;1769235;80;22985;-91
2022/11/17 01:12:34;;;;;;;3.37;2.90;;;;;;;2.48;69.27;101048.69;1765564;80;21035;-91
2022/11/17 01:15:01;;;;;;;3.37;3.08;;;;;;;2.38;69.16;101037.63;1764626;80;21050;-90
2022/11/17 01:17:27;;;;;;;3.10;2.80;;;;;;;2.40;69.05;101047.30;1761340;80;21027;-91
2022/11/17 01:19:54;;;;;;;3.55;3.25;;;;;;;2.37;69.16;101049.72;1765980;80;22425;-91
2022/11/17 01:22:21;;;;;;;4.20;2.90;;;;;;;2.38;69.13;101051.91;1770529;79;22117;-89
2022/11/17 01:24:47;;;;;;;3.52;3.17;;;;;;;2.35;69.07;101050.03;1766716;80;21057;-89
2022/11/17 01:27:14;;;;;;;3.67;3.35;;;;;;;2.32;69.02;101047.23;1761643;79;21070;-89
2022/11/17 01:29:41;;;;;;;6.47;3.98;;;;;;;2.33;69.14;101040.83;1764824;80;21054;-90
2022/11/17 01:32:07;;;;;;;4.00;3.60;;;;;;;2.34;69.03;101035.23;1760132;80;21614;-90
2022/11/17 01:34:34;;;;;;;3.47;3.17;;;;;;;2.34;69.01;101036.12;1765643;80;22967;-91
2022/11/17 01:37:19;;;;;;;3.72;3.35;;;;;;;2.33;68.98;101023.95;1768338;80;20954;-94
2022/11/17 01:39:46;;;;;;;7.62;3.37;;;;;;;2.36;69.04;101018.03;1763685;80;21102;-89
2022/11/17 01:42:21;;;;;;;3.87;3.02;;;;;;;2.34;68.82;101013.15;1766817;80;21027;-90
2022/11/17 01:45:21;;;;;;;3.42;3.12;;;;;;;2.26;68.79;101001.40;1768475;80;21578;-90
2022/11/17 01:47:58;;;;;;;3.83;3.17;;;;;;;2.27;68.74;101004.09;1721125;82;21978;-89
2022/11/17 01:50:35;;;;;;;4.03;3.45;;;;;;;2.25;68.71;101003.48;1717285;82;21334;-90
2022/11/17 01:53:08;;;;;;;3.40;3.10;;;;;;;2.24;68.69;101014.28;1699221;82;21164;-90
2022/11/17 01:55:44;;;;;;;4.85;3.52;;;;;;;2.22;68.66;101010.69;1719848;81;21709;-90
2022/11/17 01:58:15;;;;;;;3.35;3.05;;;;;;;2.19;68.64;101016.98;1721454;82;21097;-90
2022/11/17 02:00:42;;;;;;;3.72;3.25;;;;;;;2.19;68.67;101012.20;1647207;85;21780;-89
2022/11/17 02:03:08;;;;;;;3.92;3.40;;;;;;;2.19;68.65;101014.80;1658895;85;21078;-90
2022/11/17 02:05:55;;;;;;;4.75;3.65;;;;;;;2.19;68.68;101018.69;1674776;85;21137;-90
2022/11/17 02:08:23;;;;;;;3.85;3.35;;;;;;;2.22;68.70;101018.48;1727161;82;21126;-90
2022/11/17 02:10:50;;;;;;;4.55;3.20;;;;;;;2.21;68.60;101016.67;1720295;81;21169;-89
2022/11/17 02:13:18;;;;;;;4.25;3.37;;;;;;;2.21;68.60;101014.48;1724274;82;21975;-91
2022/11/17 02:15:45;;;;;;;4.17;3.52;;;;;;;2.21;68.67;101009.29;1718205;82;21010;-89
2022/11/17 02:18:12;;;;;;;4.72;3.42;;;;;;;2.24;68.69;100997.40;1714028;82;21160;-89
2022/11/17 02:21:08;;;;;;;5.83;3.80;;;;;;;2.27;68.68;100995.00;1703708;82;21058;-88
2022/11/17 02:23:57;;;;;;;5.30;4.17;;;;;;;2.24;68.60;100996.09;1736016;81;21065;-88
2022/11/17 02:26:50;;;;;;;4.10;3.70;;;;;;;2.27;68.63;100990.19;1691514;81;23032;-89
2022/11/17 02:29:28;;;;;;;5.80;4.50;;;;;;;2.27;68.58;100984.99;1748329;80;21059;-88
2022/11/17 02:32:16;;;;;;;4.10;3.62;;;;;;;2.24;68.56;100986.13;1755767;80;21410;-89
2022/11/17 02:35:05;;;;;;;5.12;4.00;;;;;;;2.25;68.60;100991.42;1752394;81;21076;-89
2022/11/17 02:38:00;;;;;;;6.83;5.03;;;;;;;2.26;68.59;100989.70;1758510;79;20998;-89
2022/11/17 02:40:47;;;;;;;7.25;4.95;;;;;;;2.27;68.50;100987.21;1763739;80;21579;-87
2022/11/17 02:46:13;;;;;;;5.87;4.70;;;;;;;2.22;68.43;100989.91;1758637;79;21084;-88
2022/11/17 02:48:44;;;;;;;4.00;3.27;;;;;;;2.13;68.33;100985.03;1752795;79;21039;-86
2022/11/17 02:51:15;;;;;;;4.28;3.60;;;;;;;2.15;68.39;100995.52;1747811;81;21082;-86
2022/11/17 02:53:42;;;;;;;4.62;3.72;;;;;;;2.16;68.41;100986.02;1750774;81;21756;-86
2022/11/17 02:56:11;;;;;;;4.03;3.30;;;;;;;2.17;68.49;100987.84;1749233;81;21056;-88
2022/11/17 02:58:38;;;;;;;4.50;4.03;;;;;;;2.17;68.39;100990.02;1761170;79;21486;-87
2022/11/17 03:01:41;;;;;;;4.00;3.35;;;;;;;2.14;68.34;100991.15;1757588;81;21027;-90
2022/11/17 03:04:36;;;;;;;6.05;3.80;;;;;;;2.13;68.26;100990.64;1762379;81;20974;-90
2022/11/17 03:07:40;;;;;;;4.55;3.30;;;;;;;2.10;68.19;100991.73;1751662;81;21915;-90
2022/11/17 03:10:18;;;;;;;6.33;4.12;;;;;;;2.07;68.21;100996.34;1759196;81;21054;-90
2022/11/17 03:12:55;;;;;;;4.87;3.45;;;;;;;2.12;68.29;100990.13;1754739;79;21019;-89
2022/11/17 03:15:38;;;;;;;6.55;3.50;;;;;;;2.12;68.22;100986.23;1746944;81;22299;-90
2022/11/17 03:18:31;;;;;;;4.45;3.60;;;;;;;2.13;68.26;100988.04;1670908;80;21424;-89
2022/11/17 03:21:23;;;;;;;3.65;3.15;;;;;;;2.11;68.21;100994.84;1729490;81;22586;-89
2022/11/17 03:24:03;;;;;;;4.90;3.30;;;;;;;2.12;68.10;100994.02;1755453;81;21567;-90
2022/11/17 03:26:33;;;;;;;3.83;3.20;;;;;;;2.13;68.06;100994.53;1754338;80;21054;-91
2022/11/17 03:29:01;;;;;;;3.83;3.25;;;;;;;2.16;68.06;100993.81;1752347;81;21079;-91
2022/11/17 03:31:28;;;;;;;4.03;3.22;;;;;;;2.16;68.06;100986.95;1751920;81;21045;-88
2022/11/17 03:33:54;;;;;;;3.55;3.25;;;;;;;2.17;68.05;100986.13;1750510;81;21931;-88
2022/11/17 03:36:25;;;;;;;3.45;3.15;;;;;;;2.16;68.02;100979.53;1711572;81;21148;-88
2022/11/17 03:39:15;;;;;;;4.28;3.40;;;;;;;2.12;67.97;100983.25;1762063;80;21568;-89
2022/11/17 03:41:45;;;;;;;4.65;3.25;;;;;;;2.14;68.01;100974.27;1755529;81;21112;-89
2022/11/17 03:44:12;;;;;;;4.47;3.08;;;;;;;2.13;67.83;100976.35;1714075;82;21044;-91
2022/11/17 03:46:38;;;;;;;8.43;4.05;;;;;;;2.06;67.78;100976.36;1753039;79;22511;-91
2022/11/17 03:49:28;;;;;;;5.58;4.35;;;;;;;2.05;67.81;100978.88;1761082;81;21903;-91
2022/11/17 03:51:55;;;;;;;6.22;4.40;;;;;;;2.05;67.89;100977.17;1754966;81;21338;-91
2022/11/17 03:54:22;;;;;;;5.30;3.98;;;;;;;2.06;67.88;100976.77;1755753;81;21943;-89
2022/11/17 03:57:02;;;;;;;5.83;3.80;;;;;;;2.03;67.79;100972.30;1756557;81;21051;-90
2022/11/17 03:59:57;;;;;;;3.72;3.30;;;;;;;2.01;67.82;100970.00;1755737;81;22072;-90
2022/11/17 04:02:24;;;;;;;3.67;3.27;;;;;;;2.02;67.75;100963.10;1757389;79;21050;-89
2022/11/17 04:05:05;;;;;;;3.08;2.77;;;;;;;1.99;67.69;100970.31;1738348;81;21002;-89
2022/11/17 04:07:39;;;;;;;4.17;3.37;;;;;;;2.00;67.67;100966.01;1751791;79;21054;-90
2022/11/17 04:10:10;;;;;;;3.90;3.52;;;;;;;1.99;67.66;100965.49;1752000;79;21045;-92
2022/11/17 04:18:06;;;;;;;4.47;3.50;;;;;;;1.94;67.67;100966.52;1752273;79;21029;-88
2022/11/17 04:20:36;;;;;;;4.30;3.52;;;;;;;1.95;67.68;100968.30;1772655;80;21039;-88
2022/11/17 04:23:13;;;;;;;4.10;3.50;;;;;;;1.93;67.60;100972.50;1773400;79;21034;-88
2022/11/17 04:28:36;;;;;;;4.60;3.75;;;;;;;1.89;67.67;100964.02;1780878;80;20960;-89
2022/11/17 04:31:20;;;;;;;4.22;3.83;;;;;;;1.92;67.75;100966.41;1778790;80;20967;-89
2022/11/17 04:33:53;;;;;;;3.83;3.42;;;;;;;1.92;67.65;100955.14;1773310;80;21449;-89
2022/11/17 04:36:21;;;;;;;;;;;;;;;1.90;67.68;100958.94;1780599;80;20994;-89
2022/11/17 04:38:49;;;;;;;4.53;3.65;;;;;;;1.89;67.69;100962.73;1773004;80;21793;-89
2022/11/17 04:44:02;;;;;;;4.80;3.87;;;;;;;1.89;67.70;100961.43;1769411;80;20971;-88
2022/11/17 04:46:30;;;;;;;3.67;3.30;;;;;;;1.85;67.71;100969.42;1773366;80;20971;-88
2022/11/17 04:48:56;;;;;;;3.58;3.27;;;;;;;1.84;67.75;100963.75;1775257;80;20954;-87
2022/11/17 04:51:23;;;;;;;4.42;3.90;;;;;;;1.88;67.88;100967.44;1776091;78;21711;-89
2022/11/17 04:53:50;;;;;;;4.17;3.25;;;;;;;1.90;67.88;100965.84;1771396;80;20967;-86
2022/11/17 04:56:18;;;;;;;4.10;3.72;;;;;;;1.93;67.86;100963.41;1774247;80;21401;-85
2022/11/17 04:58:44;;;;;;;3.83;3.47;;;;;;;1.94;67.87;100961.33;1755586;80;21058;-86
2022/11/17 05:01:11;;;;;;;4.45;3.98;;;;;;;1.95;67.98;100947.53;1773079;80;20987;-87
2022/11/17 05:03:51;;;;;;;4.40;4.00;;;;;;;1.98;67.97;100952.03;1776504;80;22172;-87
2022/11/17 05:06:27;;;;;;;4.40;3.87;;;;;;;1.99;67.96;100946.94;1773297;80;21416;-85
2022/11/17 05:08:54;;;;;;;4.65;4.10;;;;;;;2.01;68.00;100946.64;1775980;80;21026;-86
2022/11/17 05:14:07;;;;;;;5.87;4.78;;;;;;;2.11;68.11;100945.50;1771061;80;20998;-86
2022/11/17 05:19:21;;;;;;;5.80;4.50;;;;;;;2.07;67.90;100944.83;1767240;80;21953;-85
2022/11/17 05:21:48;;;;;;;8.63;5.03;;;;;;;2.06;67.91;100944.31;1757924;80;21005;-85
2022/11/17 05:24:14;;;;;;;5.37;4.42;;;;;;;2.00;67.79;100937.45;1761695;79;20988;-92
2022/11/17 05:26:42;;;;;;;4.35;3.95;;;;;;;2.00;67.78;100933.55;1762011;80;20987;-89
2022/11/17 05:29:09;;;;;;;5.20;4.10;;;;;;;2.00;67.87;100934.85;1751785;79;21693;-88
2022/11/17 05:31:35;;;;;;;5.20;4.62;;;;;;;2.00;67.86;100933.55;1745672;80;21045;-87
2022/11/17 05:34:02;;;;;;;5.15;4.40;;;;;;;2.02;67.87;100937.14;1760280;79;21875;-88
2022/11/17 05:36:29;;;;;;;5.05;4.35;;;;;;;2.02;67.85;100935.84;1763525;80;21097;-89
2022/11/17 05:38:56;;;;;;;4.62;4.05;;;;;;;2.03;67.84;100939.84;1757148;80;21015;-88
2022/11/17 05:41:22;;;;;;;5.85;4.50;;;;;;;2.01;67.87;100940.14;1760979;79;21724;-95
2022/11/17 05:43:49;;;;;;;4.60;3.65;;;;;;;2.00;67.84;100942.64;1757462;79;21023;-84
2022/11/17 05:46:19;;;;;;;5.10;3.70;;;;;;;2.01;67.91;100947.02;1754520;80;21338;-93
2022/11/17 05:48:47;;;;;;;5.58;4.55;;;;;;;1.99;67.81;100952.14;1757379;79;21035;-87
2022/11/17 05:51:14;;;;;;;6.87;4.58;;;;;;;1.95;67.76;100952.72;1747725;80;21058;-87
2022/11/17 05:53:40;;;;;;;5.72;4.47;;;;;;;1.87;67.61;100952.24;1760858;79;22098;-87
2022/11/17 05:56:38;;;;;;;5.17;4.42;;;;;;;1.81;67.62;100960.06;1756969;80;21040;-85
2022/11/17 05:59:31;;;;;;;7.20;5.00;;;;;;;1.81;67.80;100958.76;1757755;80;21048;-85
2022/11/17 06:02:17;;;;;;;5.97;4.30;;;;;;;1.83;67.79;100958.05;1758653;80;21145;-85
2022/11/17 06:04:45;;;;;;;5.12;4.35;;;;;;;1.84;67.80;100958.94;1761724;80;21076;-90
2022/11/17 06:07:11;;;;;;;8.58;4.83;;;;;;;1.85;67.79;100955.55;1757033;80;21714;-87
2022/11/17 06:09:40;;;;;;;5.45;4.83;;;;;;;1.88;67.84;100958.35;1756286;80;21100;-89
2022/11/17 06:12:06;;;;;;;6.17;5.03;;;;;;;1.91;67.89;100955.52;1755301;81;21084;-96
2022/11/17 06:14:34;;;;;;;5.75;5.15;;;;;;;1.95;67.86;100954.02;1722724;82;21083;-93
2022/11/17 06:17:05;;;;;;;7.83;5.12;;;;;;;1.95;67.83;100964.40;1681968;81;21927;-96
2022/11/17 06:19:37;;;;;;;6.12;4.97;;;;;;;1.93;67.85;100960.44;1725871;81;22469;-94
2022/11/17 06:22:04;;;;;;;5.50;4.78;;;;;;;1.94;67.84;100959.62;1722667;82;21036;-91
2022/11/17 06:24:31;;;;;;;6.00;4.95;;;;;;;1.93;67.85;100962.11;1709233;82;21127;-90
2022/11/17 06:26:58;;;;;;;5.05;4.55;;;;;;;1.89;67.73;100963.61;1731773;82;21496;-96
2022/11/17 06:29:25;;;;;;;10.93;4.37;;;;;;;1.87;67.75;100965.22;1734692;82;21554;-90
2022/11/17 06:31:52;;;;;;;5.72;4.92;;;;;;;1.88;67.91;100967.44;1734738;80;21757;-90
2022/11/17 06:34:20;;;;;;;9.90;4.45;;;;;;;1.91;67.87;100965.91;1762316;80;21017;-90
2022/11/17 06:36:47;;;;;;;4.80;4.20;;;;;;;1.94;67.81;100970.00;1763651;80;21119;-90
2022/11/17 06:39:14;;;;;;;6.65;4.05;;;;;;;1.93;67.71;100970.82;1736424;80;21030;-91
2022/11/17 06:41:40;;;;;;;5.03;4.10;;;;;;;1.95;67.69;100972.19;1760207;79;21106;-90
2022/11/17 06:44:07;;;;;;;4.65;3.87;;;;;;;1.92;67.56;100975.50;1759887;79;21713;-91
2022/11/17 06:46:36;;;;;;;5.20;4.42;;;;;;;1.92;67.65;100975.50;1770142;80;21535;-90
2022/11/17 06:49:08;;;;;;;4.83;4.30;;;;;;;1.89;67.46;100976.59;1762507;80;21404;-90
2022/11/17 06:51:39;;;;;;;4.28;3.75;;;;;;;1.83;67.42;100969.73;1737264;81;20980;-90
2022/11/17 06:54:09;;;;;;;5.28;3.90;;;;;;;1.79;67.40;100963.84;1733631;81;21084;-89
2022/11/17 06:56:35;;;;;;;6.53;4.17;;;;;;;1.80;67.47;100966.03;1740452;81;22112;-90
2022/11/17 06:59:09;;;;;;;5.83;4.10;;;;;;;1.82;67.48;100969.63;1734939;82;21075;-90
2022/11/17 07:01:39;;;;;;;8.63;4.47;;;;;;;1.81;67.47;100970.03;1711475;82;21004;-90
2022/11/17 07:04:21;;;;;;;7.35;4.58;;;;;;;1.80;67.50;100961.73;1744793;80;21498;-90
2022/11/17 07:06:42;;;;;;;8.18;4.40;;;;;;;1.80;67.56;100957.84;1766082;79;21535;-89
2022/11/17 07:09:14;;;;;;;6.58;4.50;;;;;;;1.81;67.45;100963.95;1761815;79;22968;-89
2022/11/17 07:11:44;;;;;;;5.12;4.62;;;;;;;1.83;67.48;100959.75;1760743;80;20976;-89
2022/11/17 07:14:10;;;;;;;5.30;4.60;;;;;;;1.85;67.45;100964.64;1740477;80;21050;-90
2022/11/17 07:29:47;;;;;;;4.05;3.27;;;;;;;2.09;67.47;100959.69;1628298;83;21071;-89
2022/11/17 07:32:21;;;;;;;4.55;3.92;;;;;;;2.08;67.34;100969.59;1640402;83;21556;-89
2022/11/17 07:35:25;;;;;;;4.17;3.65;;;;;;;2.06;67.34;100959.89;1697157;83;21082;-89
2022/11/17 07:40:43;;;;;;;4.33;3.92;;;;;;;2.00;67.41;100972.09;1668789;83;21074;-89
2022/11/17 07:43:10;;;;;;;4.10;3.70;;;;;;;2.02;67.39;100965.70;1700297;83;21139;-89
2022/11/17 07:45:36;;;;;;;5.97;4.33;;;;;;;2.01;67.34;100971.30;1700874;83;21022;-89
2022/11/17 07:48:05;;;;;;;5.97;4.30;;;;;;;2.02;67.40;100963.99;1699815;83;21074;-88
2022/11/17 07:50:32;;;;;;;5.53;5.03;;;;;;;2.03;67.37;100967.09;1698992;83;23010;-89
2022/11/17 07:53:04;;;;;;;6.08;4.90;;;;;;;2.02;67.27;100967.89;1702426;83;21637;-89
2022/11/17 07:55:32;;;;;;;8.38;5.03;;;;;;;2.02;67.28;100965.70;1695008;82;21523;-89
2022/11/17 07:58:00;;;;;;;6.10;5.03;;;;;;;2.07;67.31;100966.48;1695169;83;21053;-92
2022/11/17 08:00:28;;;;;;;14.15;9.40;;;;;;;2.12;67.33;100965.45;1696553;83;21445;-92
2022/11/17 08:02:57;;;;;;;12.43;8.23;;;;;;;2.18;67.33;100961.97;1696821;83;21734;-93
2022/11/17 08:05:24;;;;;;;8.00;6.42;;;;;;;2.24;67.24;100962.34;1703689;82;21056;-92
2022/11/17 08:07:55;;;;;;;6.87;5.97;;;;;;;2.24;67.05;100951.06;1701886;82;20931;-93
2022/11/17 08:10:21;;;;;;;8.43;5.67;;;;;;;2.26;67.08;100951.64;1701334;83;21556;-93
2022/11/17 08:12:51;;;;;;;9.20;5.90;;;;;;;2.30;66.95;100956.20;1704392;82;21536;-92
2022/11/17 08:15:18;;;;;;;6.28;5.53;;;;;;;2.30;66.86;100947.53;1716093;80;22223;-93
2022/11/17 08:17:55;;;;;;;5.83;5.28;;;;;;;2.36;66.83;100950.49;1748936;80;20995;-93
2022/11/17 08:20:21;;;;;;;5.92;5.33;;;;;;;2.42;66.78;100944.39;1769363;80;21788;-93
2022/11/17 08:22:51;;;;;;;7.53;6.12;;;;;;;2.45;66.54;100944.56;1741981;81;21087;-93
2022/11/17 08:25:19;;;;;;;7.97;6.60;;;;;;;2.45;66.43;100953.66;1743359;80;21029;-93
2022/11/17 08:27:50;;;;;;;9.85;5.45;;;;;;;2.45;66.34;100957.96;1730579;81;21881;-94
2022/11/17 08:30:19;;;;;;;6.97;5.70;;;;;;;2.47;66.31;100957.23;1762902;80;21011;-94
2022/11/17 08:32:48;;;;;;;8.05;5.15;;;;;;;2.45;66.15;100958.84;1744685;80;20991;-93
2022/11/17 08:35:15;;;;;;;6.90;5.65;;;;;;;2.46;66.06;100954.16;1757397;80;21018;-89
2022/11/17 08:37:42;;;;;;;6.45;5.70;;;;;;;2.50;65.90;100952.66;1766186;79;21029;-89
2022/11/17 08:40:10;;;;;;;7.03;5.67;;;;;;;2.49;65.86;100960.83;1753631;80;22282;-89
2022/11/17 08:42:37;;;;;;;7.87;5.55;;;;;;;2.51;65.83;100964.41;1760222;80;21034;-89
2022/11/17 08:45:08;;;;;;;7.08;6.25;;;;;;;2.51;65.74;100969.61;1756707;80;21969;-89
2022/11/17 08:47:35;;;;;;;6.55;5.90;;;;;;;2.52;65.67;100967.52;1754999;80;21401;-89
2022/11/17 08:50:01;;;;;;;7.65;6.08;;;;;;;2.55;65.52;100963.31;1760549;79;21038;-88
2022/11/17 08:52:28;;;;;;;7.62;6.03;;;;;;;2.53;65.50;100963.21;1729718;80;21725;-88
2022/11/17 08:54:55;;;;;;;6.37;5.55;;;;;;;2.47;65.41;100961.13;1722709;82;21857;-88
2022/11/17 08:57:22;;;;;;;7.53;6.28;;;;;;;2.49;65.44;100963.42;1729474;82;21058;-88
2022/11/17 08:59:48;;;;;;;8.53;5.58;;;;;;;2.52;65.46;100974.02;1730167;82;21068;-88
2022/11/17 09:02:15;;;;;;;5.95;5.35;;;;;;;2.55;65.32;100970.69;1725584;81;21102;-88
2022/11/17 09:04:44;;;;;;;5.97;5.37;;;;;;;2.58;65.22;100973.90;1726490;81;22508;-89
2022/11/17 09:07:11;;;;;;;6.80;5.62;;;;;;;2.60;65.21;100964.49;1735292;81;21860;-88
2022/11/17 09:09:37;;;;;;;10.45;6.37;;;;;;;2.60;65.16;100966.67;1767882;80;21425;-89
2022/11/17 09:12:04;;;;;;;7.35;5.78;;;;;;;2.65;65.17;100964.38;1765470;79;20980;-89
2022/11/17 09:14:31;;;;;;;5.90;5.40;;;;;;;2.68;65.07;100955.06;1755943;80;21567;-88
2022/11/17 09:16:58;;;;;;;6.15;5.55;;;;;;;2.69;64.92;100953.35;1760386;80;21728;-91
2022/11/17 09:19:25;;;;;;;6.65;5.67;;;;;;;2.73;64.97;100955.32;1770007;80;21039;-88
2022/11/17 09:21:51;;;;;;;6.47;5.85;;;;;;;2.83;65.06;100957.65;1740462;80;21449;-88
2022/11/17 09:24:18;;;;;;;7.37;5.60;;;;;;;2.89;65.07;100952.84;1764376;80;20992;-88
2022/11/17 09:26:45;;;;;;;11.85;6.30;;;;;;;2.99;65.09;100953.38;1760742;79;21007;-88
2022/11/17 09:29:11;;;;;;;6.70;5.30;;;;;;;3.05;64.97;100953.31;1751005;81;21777;-88
2022/11/17 09:31:38;;;;;;;6.90;6.20;;;;;;;3.11;64.85;100954.08;1727389;82;21512;-90
2022/11/17 09:34:05;;;;;;;9.43;5.75;;;;;;;3.17;64.84;100947.92;1739906;81;21047;-88
2022/11/17 09:36:32;;;;;;;7.25;5.83;;;;;;;3.25;64.81;100950.58;1772813;80;21229;-88
2022/11/17 09:38:58;;;;;;;6.92;6.08;;;;;;;3.34;64.58;100949.30;1769191;80;21080;-88
2022/11/17 09:41:44;;;;;;;8.20;6.67;;;;;;;3.37;64.36;100952.09;1764311;79;21672;-87
2022/11/17 09:44:38;;;;;;;7.15;6.42;;;;;;;3.41;64.29;100943.64;1775475;79;20944;-88
2022/11/17 09:47:34;;;;;;;7.53;6.33;;;;;;;3.46;64.28;100940.91;1763996;80;21935;-88
2022/11/17 09:50:28;;;;;;;7.80;5.37;;;;;;;3.55;64.19;100931.02;1762263;80;21667;-88
2022/11/17 09:53:29;;;;;;;6.87;6.17;;;;;;;3.60;63.99;100932.14;1776455;80;21071;-88
2022/11/17 09:56:07;;;;;;;7.00;5.80;;;;;;;3.63;63.86;100928.84;1759705;80;21718;-88
2022/11/17 09:58:43;;;;;;;7.10;6.25;;;;;;;3.64;63.69;100928.93;1747861;80;21073;-88
2022/11/17 10:01:14;;;;;;;6.60;5.83;;;;;;;3.66;63.55;100911.69;1747587;80;21016;-87
2022/11/17 10:03:43;;;;;;;7.03;6.33;;;;;;;3.69;63.58;100910.53;1769651;79;21368;-88
2022/11/17 10:06:23;;;;;;;7.20;6.50;;;;;;;3.76;63.46;100913.50;1736816;81;21578;-89
2022/11/17 10:09:04;;;;;;;7.45;6.22;;;;;;;3.72;63.33;100899.41;1728126;80;22546;-89
2022/11/17 10:11:36;;;;;;;7.72;5.70;;;;;;;3.70;63.30;100903.23;1732192;82;20964;-89
2022/11/17 10:14:15;;;;;;;6.58;5.45;;;;;;;3.66;63.07;100901.27;1731560;81;20848;-89
2022/11/17 10:16:46;;;;;;;8.13;6.05;;;;;;;3.56;62.92;100895.05;1760494;80;21025;-90
2022/11/17 10:19:20;;;;;;;6.92;5.05;;;;;;;3.43;62.86;100901.69;1725933;81;21060;-89
2022/11/17 10:22:00;;;;;;;7.35;5.10;;;;;;;3.26;62.67;100899.02;1723940;82;21752;-89
2022/11/17 10:24:46;;;;;;;5.90;5.30;;;;;;;3.15;62.73;100893.61;1730170;81;20979;-89
2022/11/17 10:27:30;;;;;;;6.33;5.00;;;;;;;3.01;62.56;100901.05;1763245;80;21464;-90
2022/11/17 10:30:09;;;;;;;7.25;5.35;;;;;;;2.87;62.52;100903.75;1761450;80;21259;-89
2022/11/17 10:32:37;;;;;;;5.60;5.10;;;;;;;2.78;62.61;100898.02;1756833;80;21085;-89
2022/11/17 10:35:25;;;;;;;8.40;5.55;;;;;;;2.68;62.62;100893.98;1756879;79;21720;-89
2022/11/17 10:38:02;;;;;;;6.03;5.40;;;;;;;2.66;62.70;100893.38;1739389;80;20988;-87
2022/11/17 10:40:48;;;;;;;5.80;5.08;;;;;;;2.64;62.83;100889.39;1722256;81;21001;-87
2022/11/17 10:43:26;;;;;;;5.60;5.03;;;;;;;2.70;63.02;100887.55;1724788;81;21058;-87
2022/11/17 10:45:59;;;;;;;6.92;5.25;;;;;;;2.79;63.02;100888.09;1750052;80;21044;-88
2022/11/17 10:48:32;;;;;;;5.87;5.28;;;;;;;2.80;62.87;100888.59;1713533;82;22998;-90
2022/11/17 10:51:03;;;;;;;6.08;5.45;;;;;;;2.78;62.88;100885.02;1720733;81;20972;-90
2022/11/17 10:53:40;;;;;;;6.67;5.97;;;;;;;2.81;62.90;100889.48;1757812;80;21493;-90
2022/11/17 10:56:17;;;;;;;9.78;6.60;;;;;;;2.85;62.94;100885.88;1760404;80;20984;-87
2022/11/17 10:59:32;;;;;;;7.87;6.37;;;;;;;2.90;62.98;100880.92;1757641;80;21095;-90
2022/11/17 11:02:20;;;;;;;7.80;5.92;;;;;;;3.03;62.89;100879.93;1763236;80;21925;-88
2022/11/17 11:04:47;;;;;;;10.28;6.60;;;;;;;3.06;62.76;100881.38;1751178;80;21001;-88
2022/11/17 11:07:20;;;;;;;6.58;5.95;;;;;;;3.03;62.74;100880.81;1760554;79;20986;-87
2022/11/17 11:10:25;;;;;;;6.90;6.15;;;;;;;3.05;62.85;100879.20;1756807;80;21004;-88
2022/11/17 11:13:17;;;;;;;6.90;6.00;;;;;;;3.18;62.91;100876.01;1762246;80;20985;-87
2022/11/17 11:15:46;;;;;;;9.15;7.50;;;;;;;3.22;62.80;100872.77;1762083;79;20980;-89
2022/11/17 11:18:15;;;;;;;8.30;7.37;;;;;;;3.23;62.69;100868.03;1763421;80;21054;-88
2022/11/17 11:20:59;;;;;;;6.95;6.25;;;;;;;3.20;62.55;100870.07;1759699;80;21121;-89
2022/11/17 11:23:43;;;;;;;;;;;;;;;3.13;62.47;100868.34;1763862;81;21038;-89
2022/11/17 11:26:36;;;;;;;;;;;;;;;3.05;62.46;100868.80;1755334;81;20587;-88
2022/11/17 11:32:25;;;;;;;9.73;7.45;;;;;;;2.83;62.46;100864.47;1650370;83;20984;-89
2022/11/17 11:35:18;;;;;;;9.83;7.87;;;;;;;2.72;62.56;100861.24;1761975;80;20973;-89
2022/11/17 11:38:24;;;;;;;12.95;7.70;;;;;;;2.65;62.62;100860.42;1760669;80;20978;-88
2022/11/17 11:41:30;;;;;;;;;;;;;;;2.57;62.69;100859.94;1764270;80;20989;-88
2022/11/17 11:44:34;;;;;;;7.90;7.10;;;;;;;2.50;62.70;100855.22;1757059;80;21758;-88
2022/11/17 11:47:41;;;;;;;11.63;8.18;;;;;;;2.45;62.82;100844.95;1760979;79;20964;-89
2022/11/17 11:50:25;;;;;;;17.07;10.45;;;;;;;2.46;63.00;100841.52;1752275;79;20995;-90
2022/11/17 11:53:44;;;;;;;12.10;9.20;;;;;;;2.50;63.08;100844.82;1722027;82;21031;-90
2022/11/17 11:56:37;;;;;;;11.25;7.50;;;;;;;2.52;63.10;100840.20;1574232;89;21525;-90
2022/11/17 11:59:17;;;;;;;11.53;8.68;;;;;;;2.51;63.08;100840.09;1582479;89;21896;-89
2022/11/17 12:02:00;;;;;;;13.58;8.95;;;;;;;2.54;63.12;100828.59;1598361;87;21699;-90
2022/11/17 12:04:56;;;;;;;10.55;8.23;;;;;;;2.61;62.96;100819.06;1559984;90;21023;-90
2022/11/17 12:07:46;;;;;;;9.58;7.78;;;;;;;2.61;62.96;100819.06;1554456;90;21196;-89
2022/11/17 12:10:59;;;;;;;9.73;7.40;;;;;;;2.62;63.10;100813.45;1551905;90;21363;-90
2022/11/17 12:13:26;;;;;;;11.60;7.60;;;;;;;2.67;63.17;100809.42;1551835;90;21761;-89
2022/11/17 12:16:16;;;;;;;9.23;7.62;;;;;;;2.70;63.11;100813.09;1593354;88;21114;-89
2022/11/17 12:18:43;;;;;;;11.75;7.28;;;;;;;2.70;63.13;100814.77;1571075;88;21509;-90
2022/11/17 12:21:12;;;;;;;9.25;7.40;;;;;;;2.72;63.15;100811.86;1596895;88;21473;-90
2022/11/17 12:24:02;;;;;;;10.48;8.33;;;;;;;2.72;63.17;100813.16;1595239;88;21686;-90
2022/11/17 12:26:30;;;;;;;10.65;8.60;;;;;;;2.74;63.24;100801.17;1597739;88;21699;-89
2022/11/17 12:29:24;;;;;;;10.68;8.13;;;;;;;2.77;63.15;100801.33;1598716;88;20968;-89
2022/11/17 12:32:00;;;;;;;9.33;8.25;;;;;;;2.73;63.00;100805.86;1601612;88;21613;-89
2022/11/17 12:34:32;;;;;;;11.60;8.28;;;;;;;2.71;63.05;100806.19;1756409;80;20968;-89
2022/11/17 12:37:26;;;;;;;12.28;9.90;;;;;;;2.69;63.11;100805.20;1769865;80;21432;-89
2022/11/17 12:40:05;;;;;;;9.35;8.45;;;;;;;2.66;62.97;100795.92;1765540;79;21735;-89
2022/11/17 12:42:32;;;;;;;12.55;8.23;;;;;;;2.63;63.03;100801.84;1768020;79;21019;-88
2022/11/17 12:45:10;;;;;;;9.95;8.70;;;;;;;2.62;63.00;100802.64;1761622;80;21470;-89
2022/11/17 12:47:44;;;;;;;12.85;8.98;;;;;;;2.63;63.11;100800.96;1764898;80;21029;-90
2022/11/17 12:50:24;;;;;;;9.78;7.83;;;;;;;2.64;63.11;100802.33;1768614;79;21314;-90
2022/11/17 12:53:05;;;;;;;12.40;7.83;;;;;;;2.64;63.09;100798.42;1770449;79;21705;-91
2022/11/17 12:56:07;;;;;;;13.75;7.80;;;;;;;2.67;63.13;100800.33;1766551;80;21418;-92